sensor_id;sensor_type;location;lat;lon;timestamp;pressure;altitude;pressure_sealevel;temperature;humidity
3254;BME280;1639;42.804;23.342;2023-08-08T00:02:13;72250.53;;;-148.52;100.00
3254;BME280;1639;42.804;23.342;2023-08-08T00:04:38;72248.47;;;-148.52;100.00
3254;BME280;1639;42.804;23.342;2023-08-08T00:07:04;72244.34;;;-148.52;100.00
3254;BME280;1639;42.804;23.342;2023-08-08T00:09:29;72238.13;;;-148.52;100.00
3254;BME280;1639;42.804;23.342;2023-08-08T00:11:54;72231.94;;;-148.52;100.00
3254;BME280;1639;42.804;23.342;2023-08-08T00:14:22;72238.13;;;-148.52;100.00
3254;BME280;1639;42.804;23.342;2023-08-08T00:16:47;72223.66;;;-148.52;100.00
3254;BME280;1639;42.804;23.342;2023-08-08T00:19:13;72223.66;;;-148.52;100.00
3254;BME280;1639;42.804;23.342;2023-08-08T00:21:38;72227.78;;;-148.52;100.00
3254;BME280;1639;42.804;23.342;2023-08-08T00:24:03;72229.88;;;-148.52;100.00
3254;BME280;1639;42.804;23.342;2023-08-08T00:26:29;72234.00;;;-148.52;100.00
3254;BME280;1639;42.804;23.342;2023-08-08T00:28:54;72236.06;;;-148.52;100.00
3254;BME280;1639;42.804;23.342;2023-08-08T00:31:20;72242.28;;;-148.52;100.00
3254;BME280;1639;42.804;23.342;2023-08-08T00:33:45;72240.22;;;-148.52;100.00
3254;BME280;1639;42.804;23.342;2023-08-08T00:36:10;72244.34;;;-148.52;100.00
3254;BME280;1639;42.804;23.342;2023-08-08T00:38:36;72242.28;;;-148.52;100.00
3254;BME280;1639;42.804;23.342;2023-08-08T00:41:01;72240.22;;;-148.52;100.00
3254;BME280;1639;42.804;23.342;2023-08-08T00:43:27;72244.34;;;-148.52;100.00
3254;BME280;1639;42.804;23.342;2023-08-08T00:45:52;72248.47;;;-148.52;100.00
3254;BME280;1639;42.804;23.342;2023-08-08T00:48:18;72275.34;;;-148.52;100.00
3254;BME280;1639;42.804;23.342;2023-08-08T00:50:45;72289.84;;;-148.52;100.00
3254;BME280;1639;42.804;23.342;2023-08-08T00:53:13;72281.56;;;-148.52;100.00
3254;BME280;1639;42.804;23.342;2023-08-08T00:55:38;72306.38;;;-148.52;100.00
3254;BME280;1639;42.804;23.342;2023-08-08T00:58:04;72302.25;;;-148.52;100.00
3254;BME280;1639;42.804;23.342;2023-08-08T01:00:29;72343.59;;;-148.52;100.00
3254;BME280;1639;42.804;23.342;2023-08-08T01:02:55;72339.47;;;-148.52;100.00
3254;BME280;1639;42.804;23.342;2023-08-08T01:05:20;72343.59;;;-148.52;100.00
3254;BME280;1639;42.804;23.342;2023-08-08T01:07:59;72362.22;;;-148.52;100.00
3254;BME280;1639;42.804;23.342;2023-08-08T01:10:30;72374.63;;;-148.52;100.00
3254;BME280;1639;42.804;23.342;2023-08-08T01:13:00;72397.38;;;-148.52;100.00
3254;BME280;1639;42.804;23.342;2023-08-08T01:15:28;72401.50;;;-148.52;100.00
3254;BME280;1639;42.804;23.342;2023-08-08T01:17:57;72413.91;;;-148.52;100.00
3254;BME280;1639;42.804;23.342;2023-08-08T01:20:23;72403.56;;;-148.52;100.00
3254;BME280;1639;42.804;23.342;2023-08-08T01:25:23;72399.44;;;-148.52;100.00
3254;BME280;1639;42.804;23.342;2023-08-08T01:27:49;72393.22;;;-148.52;100.00
3254;BME280;1639;42.804;23.342;2023-08-08T01:30:14;72382.88;;;-148.52;100.00
3254;BME280;1639;42.804;23.342;2023-08-08T01:32:40;72384.97;;;-148.52;100.00
3254;BME280;1639;42.804;23.342;2023-08-08T01:35:06;72380.81;;;-148.52;100.00
3254;BME280;1639;42.804;23.342;2023-08-08T01:40:01;72380.81;;;-148.52;100.00
3254;BME280;1639;42.804;23.342;2023-08-08T01:42:27;72391.16;;;-148.52;100.00
3254;BME280;1639;42.804;23.342;2023-08-08T01:44:55;72389.09;;;-148.52;100.00
3254;BME280;1639;42.804;23.342;2023-08-08T01:47:20;72393.22;;;-148.52;100.00
3254;BME280;1639;42.804;23.342;2023-08-08T01:49:46;72387.03;;;-148.52;100.00
3254;BME280;1639;42.804;23.342;2023-08-08T01:52:11;72384.97;;;-148.52;100.00
3254;BME280;1639;42.804;23.342;2023-08-08T01:54:36;72393.22;;;-148.52;100.00
3254;BME280;1639;42.804;23.342;2023-08-08T01:57:02;72403.56;;;-148.52;100.00
3254;BME280;1639;42.804;23.342;2023-08-08T01:59:28;72403.56;;;-148.52;100.00
3254;BME280;1639;42.804;23.342;2023-08-08T02:01:53;72395.28;;;-148.52;100.00
3254;BME280;1639;42.804;23.342;2023-08-08T02:04:19;72393.22;;;-148.52;100.00
3254;BME280;1639;42.804;23.342;2023-08-08T02:06:46;72405.63;;;-148.52;100.00
3254;BME280;1639;42.804;23.342;2023-08-08T02:09:11;72403.56;;;-148.52;100.00
3254;BME280;1639;42.804;23.342;2023-08-08T02:11:39;72411.84;;;-148.52;100.00
3254;BME280;1639;42.804;23.342;2023-08-08T02:14:05;72422.19;;;-148.52;100.00
3254;BME280;1639;42.804;23.342;2023-08-08T02:16:30;72428.38;;;-148.52;100.00
3254;BME280;1639;42.804;23.342;2023-08-08T02:18:55;72422.19;;;-148.52;100.00
3254;BME280;1639;42.804;23.342;2023-08-08T02:21:21;72428.38;;;-148.52;100.00
3254;BME280;1639;42.804;23.342;2023-08-08T02:23:46;72432.53;;;-148.52;100.00
3254;BME280;1639;42.804;23.342;2023-08-08T02:26:11;72438.72;;;-148.52;100.00
3254;BME280;1639;42.804;23.342;2023-08-08T02:28:37;72426.31;;;-148.52;100.00
3254;BME280;1639;42.804;23.342;2023-08-08T02:31:02;72424.25;;;-148.52;100.00
3254;BME280;1639;42.804;23.342;2023-08-08T02:33:28;72426.31;;;-148.52;100.00
3254;BME280;1639;42.804;23.342;2023-08-08T02:35:53;72424.25;;;-148.52;100.00
3254;BME280;1639;42.804;23.342;2023-08-08T02:38:18;72436.66;;;-148.52;100.00
3254;BME280;1639;42.804;23.342;2023-08-08T02:40:44;72434.59;;;-148.52;100.00
3254;BME280;1639;42.804;23.342;2023-08-08T02:43:09;72434.59;;;-148.52;100.00
3254;BME280;1639;42.804;23.342;2023-08-08T02:45:36;72430.44;;;-148.52;100.00
3254;BME280;1639;42.804;23.342;2023-08-08T02:48:01;72440.78;;;-148.52;100.00
3254;BME280;1639;42.804;23.342;2023-08-08T02:50:27;72447.00;;;-148.52;100.00
3254;BME280;1639;42.804;23.342;2023-08-08T02:52:52;72442.84;;;-148.52;100.00
3254;BME280;1639;42.804;23.342;2023-08-08T02:55:17;72438.72;;;-148.52;100.00
3254;BME280;1639;42.804;23.342;2023-08-08T02:57:43;72434.59;;;-148.52;100.00
3254;BME280;1639;42.804;23.342;2023-08-08T03:00:08;72451.13;;;-148.52;100.00
3254;BME280;1639;42.804;23.342;2023-08-08T03:02:35;72451.13;;;-148.52;100.00
3254;BME280;1639;42.804;23.342;2023-08-08T03:05:01;72447.00;;;-148.52;100.00
3254;BME280;1639;42.804;23.342;2023-08-08T03:07:26;72455.25;;;-148.52;100.00
3254;BME280;1639;42.804;23.342;2023-08-08T03:09:51;72444.94;;;-148.52;100.00
3254;BME280;1639;42.804;23.342;2023-08-08T03:12:17;72449.06;;;-148.52;100.00
3254;BME280;1639;42.804;23.342;2023-08-08T03:14:42;72457.34;;;-148.52;100.00
3254;BME280;1639;42.804;23.342;2023-08-08T03:17:07;72455.25;;;-148.52;100.00
3254;BME280;1639;42.804;23.342;2023-08-08T03:19:33;72465.59;;;-148.52;100.00
3254;BME280;1639;42.804;23.342;2023-08-08T03:22:00;72463.53;;;-148.52;100.00
3254;BME280;1639;42.804;23.342;2023-08-08T03:24:26;72480.09;;;-148.52;100.00
3254;BME280;1639;42.804;23.342;2023-08-08T03:26:51;72488.34;;;-148.52;100.00
3254;BME280;1639;42.804;23.342;2023-08-08T03:29:16;72482.16;;;-148.52;100.00
3254;BME280;1639;42.804;23.342;2023-08-08T03:31:42;72480.09;;;-148.52;100.00
3254;BME280;1639;42.804;23.342;2023-08-08T03:34:07;72490.41;;;-148.52;100.00
3254;BME280;1639;42.804;23.342;2023-08-08T03:36:33;72490.41;;;-148.52;100.00
3254;BME280;1639;42.804;23.342;2023-08-08T03:38:58;72486.28;;;-148.52;100.00
3254;BME280;1639;42.804;23.342;2023-08-08T03:41:23;72511.09;;;-148.52;100.00
3254;BME280;1639;42.804;23.342;2023-08-08T03:43:49;72502.81;;;-148.52;100.00
3254;BME280;1639;42.804;23.342;2023-08-08T03:46:14;72492.50;;;-148.52;100.00
3254;BME280;1639;42.804;23.342;2023-08-08T03:48:39;72486.28;;;-148.52;100.00
3254;BME280;1639;42.804;23.342;2023-08-08T03:51:05;72488.34;;;-148.52;100.00
3254;BME280;1639;42.804;23.342;2023-08-08T03:53:32;72496.63;;;-148.52;100.00
3254;BME280;1639;42.804;23.342;2023-08-08T03:55:57;72513.16;;;-148.52;100.00
3254;BME280;1639;42.804;23.342;2023-08-08T03:58:22;72484.22;;;-148.52;100.00
3254;BME280;1639;42.804;23.342;2023-08-08T04:00:48;72482.16;;;-148.52;100.00
3254;BME280;1639;42.804;23.342;2023-08-08T04:03:14;72482.16;;;-148.52;100.00
3254;BME280;1639;42.804;23.342;2023-08-08T04:05:40;72488.34;;;-148.52;100.00
3254;BME280;1639;42.804;23.342;2023-08-08T04:08:06;72486.28;;;-148.52;100.00
3254;BME280;1639;42.804;23.342;2023-08-08T04:10:31;72484.22;;;-148.52;100.00
3254;BME280;1639;42.804;23.342;2023-08-08T04:12:57;72490.41;;;-148.52;100.00
3254;BME280;1639;42.804;23.342;2023-08-08T04:15:22;72494.56;;;-148.52;100.00
3254;BME280;1639;42.804;23.342;2023-08-08T04:17:47;72494.56;;;-148.52;100.00
3254;BME280;1639;42.804;23.342;2023-08-08T04:20:13;72488.34;;;-148.52;100.00
3254;BME280;1639;42.804;23.342;2023-08-08T04:22:39;72504.91;;;-148.52;100.00
3254;BME280;1639;42.804;23.342;2023-08-08T04:25:05;72504.91;;;-148.52;100.00
3254;BME280;1639;42.804;23.342;2023-08-08T04:27:31;72527.66;;;-148.52;100.00
3254;BME280;1639;42.804;23.342;2023-08-08T04:29:56;72529.72;;;-148.52;100.00
3254;BME280;1639;42.804;23.342;2023-08-08T04:32:22;72546.25;;;-148.52;100.00
3254;BME280;1639;42.804;23.342;2023-08-08T04:34:47;72544.19;;;-148.52;100.00
3254;BME280;1639;42.804;23.342;2023-08-08T04:37:12;72552.47;;;-148.52;100.00
3254;BME280;1639;42.804;23.342;2023-08-08T04:39:38;72556.59;;;-148.52;100.00
3254;BME280;1639;42.804;23.342;2023-08-08T04:42:03;72554.53;;;-148.52;100.00
3254;BME280;1639;42.804;23.342;2023-08-08T04:44:29;72535.91;;;-148.52;100.00
3254;BME280;1639;42.804;23.342;2023-08-08T04:46:55;72529.72;;;-148.52;100.00
3254;BME280;1639;42.804;23.342;2023-08-08T04:49:20;72517.31;;;-148.52;100.00
3254;BME280;1639;42.804;23.342;2023-08-08T04:51:46;72509.03;;;-148.52;100.00
3254;BME280;1639;42.804;23.342;2023-08-08T04:54:11;72500.75;;;-148.52;100.00
3254;BME280;1639;42.804;23.342;2023-08-08T04:56:36;72498.69;;;-148.52;100.00
3254;BME280;1639;42.804;23.342;2023-08-08T04:59:02;72490.41;;;-148.52;100.00
3254;BME280;1639;42.804;23.342;2023-08-08T05:01:27;72486.28;;;-148.52;100.00
3254;BME280;1639;42.804;23.342;2023-08-08T05:03:53;72496.63;;;-148.52;100.00
3254;BME280;1639;42.804;23.342;2023-08-08T05:06:18;72498.69;;;-148.52;100.00
3254;BME280;1639;42.804;23.342;2023-08-08T05:08:44;72527.66;;;-148.52;100.00
3254;BME280;1639;42.804;23.342;2023-08-08T05:11:09;72537.97;;;-148.52;100.00
3254;BME280;1639;42.804;23.342;2023-08-08T05:13:35;72548.31;;;-148.52;100.00
3254;BME280;1639;42.804;23.342;2023-08-08T05:16:00;72560.72;;;-148.52;100.00
3254;BME280;1639;42.804;23.342;2023-08-08T05:18:26;72569.00;;;-148.52;100.00
3254;BME280;1639;42.804;23.342;2023-08-08T05:20:51;72579.34;;;-148.52;100.00
3254;BME280;1639;42.804;23.342;2023-08-08T05:23:16;72566.94;;;-148.52;100.00
3254;BME280;1639;42.804;23.342;2023-08-08T05:25:42;72550.38;;;-148.52;100.00
3254;BME280;1639;42.804;23.342;2023-08-08T05:28:07;72521.44;;;-148.52;100.00
3254;BME280;1639;42.804;23.342;2023-08-08T05:30:32;72517.31;;;-148.52;100.00
3254;BME280;1639;42.804;23.342;2023-08-08T05:32:58;72502.81;;;-148.52;100.00
3254;BME280;1639;42.804;23.342;2023-08-08T05:35:24;72506.97;;;-148.52;100.00
3254;BME280;1639;42.804;23.342;2023-08-08T05:37:49;72500.75;;;-148.52;100.00
3254;BME280;1639;42.804;23.342;2023-08-08T05:40:14;72492.50;;;-148.52;100.00
3254;BME280;1639;42.804;23.342;2023-08-08T05:42:40;72496.63;;;-148.52;100.00
3254;BME280;1639;42.804;23.342;2023-08-08T05:45:06;72496.63;;;-148.52;100.00
3254;BME280;1639;42.804;23.342;2023-08-08T05:47:32;72506.97;;;-148.52;100.00
3254;BME280;1639;42.804;23.342;2023-08-08T05:49:57;72502.81;;;-148.52;100.00
3254;BME280;1639;42.804;23.342;2023-08-08T05:52:22;72496.63;;;-148.52;100.00
3254;BME280;1639;42.804;23.342;2023-08-08T05:54:48;72488.34;;;-148.52;100.00
3254;BME280;1639;42.804;23.342;2023-08-08T05:57:13;72492.50;;;-148.52;100.00
3254;BME280;1639;42.804;23.342;2023-08-08T05:59:39;72488.34;;;-148.52;100.00
3254;BME280;1639;42.804;23.342;2023-08-08T06:02:04;72519.38;;;-148.52;100.00
3254;BME280;1639;42.804;23.342;2023-08-08T06:04:30;72498.69;;;-148.52;100.00
3254;BME280;1639;42.804;23.342;2023-08-08T06:06:55;72504.91;;;-148.52;100.00
3254;BME280;1639;42.804;23.342;2023-08-08T06:09:20;72494.56;;;-148.52;100.00
3254;BME280;1639;42.804;23.342;2023-08-08T06:11:46;72486.28;;;-148.52;100.00
3254;BME280;1639;42.804;23.342;2023-08-08T06:14:12;72463.53;;;-148.52;100.00
3254;BME280;1639;42.804;23.342;2023-08-08T06:16:37;72463.53;;;-148.52;100.00
3254;BME280;1639;42.804;23.342;2023-08-08T06:19:02;72449.06;;;-148.52;100.00
3254;BME280;1639;42.804;23.342;2023-08-08T06:21:28;72442.84;;;-148.52;100.00
3254;BME280;1639;42.804;23.342;2023-08-08T06:23:53;72447.00;;;-148.52;100.00
3254;BME280;1639;42.804;23.342;2023-08-08T06:26:23;72434.59;;;-148.52;100.00
3254;BME280;1639;42.804;23.342;2023-08-08T06:28:49;72420.09;;;-148.52;100.00
3254;BME280;1639;42.804;23.342;2023-08-08T06:31:16;72413.91;;;-148.52;100.00
3254;BME280;1639;42.804;23.342;2023-08-08T06:33:42;72378.75;;;-148.52;100.00
3254;BME280;1639;42.804;23.342;2023-08-08T06:36:07;72376.69;;;-148.52;100.00
3254;BME280;1639;42.804;23.342;2023-08-08T06:38:32;72374.63;;;-148.52;100.00
3254;BME280;1639;42.804;23.342;2023-08-08T06:41:04;72368.41;;;-148.52;100.00
3254;BME280;1639;42.804;23.342;2023-08-08T06:43:31;72333.25;;;-148.52;100.00
3254;BME280;1639;42.804;23.342;2023-08-08T06:45:56;72327.06;;;-148.52;100.00
3254;BME280;1639;42.804;23.342;2023-08-08T06:48:22;72310.50;;;-148.52;100.00
3254;BME280;1639;42.804;23.342;2023-08-08T06:50:47;72300.16;;;-148.52;100.00
3254;BME280;1639;42.804;23.342;2023-08-08T06:53:13;72302.25;;;-148.52;100.00
3254;BME280;1639;42.804;23.342;2023-08-08T06:55:38;72316.72;;;-148.52;100.00
3254;BME280;1639;42.804;23.342;2023-08-08T06:58:04;72285.69;;;-148.52;100.00
3254;BME280;1639;42.804;23.342;2023-08-08T07:00:29;72293.97;;;-148.52;100.00
3254;BME280;1639;42.804;23.342;2023-08-08T07:02:55;72316.72;;;-148.52;100.00
3254;BME280;1639;42.804;23.342;2023-08-08T07:05:20;72322.91;;;-148.52;100.00
3254;BME280;1639;42.804;23.342;2023-08-08T07:07:51;72302.25;;;-148.52;100.00
3254;BME280;1639;42.804;23.342;2023-08-08T07:10:16;72277.44;;;-148.52;100.00
3254;BME280;1639;42.804;23.342;2023-08-08T07:12:42;72287.75;;;-148.52;100.00
3254;BME280;1639;42.804;23.342;2023-08-08T07:15:08;72267.09;;;-148.52;100.00
3254;BME280;1639;42.804;23.342;2023-08-08T07:17:33;72314.66;;;-148.52;100.00
3254;BME280;1639;42.804;23.342;2023-08-08T07:19:59;72347.72;;;-148.52;100.00
3254;BME280;1639;42.804;23.342;2023-08-08T07:22:25;72310.50;;;-148.52;100.00
3254;BME280;1639;42.804;23.342;2023-08-08T07:24:51;72252.63;;;-148.52;100.00
3254;BME280;1639;42.804;23.342;2023-08-08T07:27:16;72215.38;;;-148.52;100.00
3254;BME280;1639;42.804;23.342;2023-08-08T07:29:41;72227.78;;;-148.52;100.00
3254;BME280;1639;42.804;23.342;2023-08-08T07:32:07;72256.75;;;-148.52;62.88
3254;BME280;1639;42.804;23.342;2023-08-08T07:34:33;72262.94;;;-148.52;63.95
3254;BME280;1639;42.804;23.342;2023-08-08T07:36:59;72285.69;;;-148.52;64.45
3254;BME280;1639;42.804;23.342;2023-08-08T07:39:24;72283.63;;;-148.52;65.65
3254;BME280;1639;42.804;23.342;2023-08-08T07:41:50;72273.28;;;-148.52;65.58
3254;BME280;1639;42.804;23.342;2023-08-08T07:44:16;72285.69;;;-148.52;65.46
3254;BME280;1639;42.804;23.342;2023-08-08T07:46:41;72252.63;;;-148.52;65.06
3254;BME280;1639;42.804;23.342;2023-08-08T07:49:07;72198.84;;;-148.52;62.59
3254;BME280;1639;42.804;23.342;2023-08-08T07:51:33;72145.09;;;-148.52;60.53
3254;BME280;1639;42.804;23.342;2023-08-08T07:53:59;72095.47;;;-148.52;59.53
3254;BME280;1639;42.804;23.342;2023-08-08T07:56:25;72062.38;;;-148.52;56.79
3254;BME280;1639;42.804;23.342;2023-08-08T07:58:50;72031.38;;;-148.52;55.02
3254;BME280;1639;42.804;23.342;2023-08-08T08:01:16;72000.34;;;-148.52;52.97
3254;BME280;1639;42.804;23.342;2023-08-08T08:03:42;71990.00;;;-148.52;52.82
3254;BME280;1639;42.804;23.342;2023-08-08T08:06:07;71979.66;;;-148.52;53.14
3254;BME280;1639;42.804;23.342;2023-08-08T08:08:32;71990.00;;;-148.52;52.27
3254;BME280;1639;42.804;23.342;2023-08-08T08:10:58;71975.53;;;-148.52;52.00
3254;BME280;1639;42.804;23.342;2023-08-08T08:13:23;71938.31;;;-148.52;51.71
3254;BME280;1639;42.804;23.342;2023-08-08T08:15:49;71934.19;;;-148.52;50.99
3254;BME280;1639;42.804;23.342;2023-08-08T08:18:14;72016.88;;;-148.52;50.79
3254;BME280;1639;42.804;23.342;2023-08-08T08:20:43;72023.09;;;-148.52;52.33
3254;BME280;1639;42.804;23.342;2023-08-08T08:23:09;72033.44;;;-148.52;51.73
3254;BME280;1639;42.804;23.342;2023-08-08T08:25:35;72033.44;;;-148.52;51.53
3254;BME280;1639;42.804;23.342;2023-08-08T08:28:00;71983.81;;;-148.52;53.78
3254;BME280;1639;42.804;23.342;2023-08-08T08:30:25;71938.31;;;-148.52;51.56
3254;BME280;1639;42.804;23.342;2023-08-08T08:32:52;71901.09;;;-148.52;50.59
3254;BME280;1639;42.804;23.342;2023-08-08T08:35:17;71865.94;;;-148.52;50.12
3254;BME280;1639;42.804;23.342;2023-08-08T08:37:43;71834.94;;;-148.52;47.64
3254;BME280;1639;42.804;23.342;2023-08-08T08:40:09;71828.72;;;-148.52;48.91
3254;BME280;1639;42.804;23.342;2023-08-08T08:42:35;71843.19;;;-148.52;47.78
3254;BME280;1639;42.804;23.342;2023-08-08T08:45:04;71839.06;;;-148.52;48.04
3254;BME280;1639;42.804;23.342;2023-08-08T08:47:31;71816.31;;;-148.52;49.14
3254;BME280;1639;42.804;23.342;2023-08-08T08:49:58;71841.13;;;-148.52;48.00
3254;BME280;1639;42.804;23.342;2023-08-08T08:52:23;71851.47;;;-148.52;47.80
3254;BME280;1639;42.804;23.342;2023-08-08T08:54:53;71843.19;;;-148.52;50.33
3254;BME280;1639;42.804;23.342;2023-08-08T08:57:22;71810.13;;;-148.52;48.76
3254;BME280;1639;42.804;23.342;2023-08-08T08:59:51;71756.38;;;-148.52;49.21
3254;BME280;1639;42.804;23.342;2023-08-08T09:02:18;71764.63;;;-148.52;46.82
3254;BME280;1639;42.804;23.342;2023-08-08T09:04:44;71772.91;;;-148.52;45.83
3254;BME280;1639;42.804;23.342;2023-08-08T09:07:11;71785.31;;;-148.52;46.88
3254;BME280;1639;42.804;23.342;2023-08-08T09:09:37;71779.09;;;-148.52;47.24
3254;BME280;1639;42.804;23.342;2023-08-08T09:12:03;71779.09;;;-148.52;48.58
3254;BME280;1639;42.804;23.342;2023-08-08T09:14:29;71789.44;;;-148.52;45.65
3254;BME280;1639;42.804;23.342;2023-08-08T09:16:55;71764.63;;;-148.52;46.40
3254;BME280;1639;42.804;23.342;2023-08-08T09:19:22;71752.22;;;-148.52;45.32
3254;BME280;1639;42.804;23.342;2023-08-08T09:21:48;71752.22;;;-148.52;44.97
3254;BME280;1639;42.804;23.342;2023-08-08T09:24:14;71760.50;;;-148.52;46.28
3254;BME280;1639;42.804;23.342;2023-08-08T09:26:40;71748.09;;;-148.52;44.72
3254;BME280;1639;42.804;23.342;2023-08-08T09:29:06;71750.16;;;-148.52;45.78
3254;BME280;1639;42.804;23.342;2023-08-08T09:31:34;71768.78;;;-148.52;45.57
3254;BME280;1639;42.804;23.342;2023-08-08T09:34:02;71758.44;;;-148.52;46.73
3254;BME280;1639;42.804;23.342;2023-08-08T09:36:27;71729.50;;;-148.52;46.68
3254;BME280;1639;42.804;23.342;2023-08-08T09:38:54;71760.50;;;-148.52;45.05
3254;BME280;1639;42.804;23.342;2023-08-08T09:41:23;71760.50;;;-148.52;45.68
3254;BME280;1639;42.804;23.342;2023-08-08T09:43:51;71758.44;;;-148.52;44.88
3254;BME280;1639;42.804;23.342;2023-08-08T09:46:19;71783.25;;;-148.52;46.97
3254;BME280;1639;42.804;23.342;2023-08-08T09:48:44;71750.16;;;-148.52;47.76
3254;BME280;1639;42.804;23.342;2023-08-08T09:51:10;71735.69;;;-148.52;45.85
3254;BME280;1639;42.804;23.342;2023-08-08T09:53:36;71748.09;;;-148.52;45.93
3254;BME280;1639;42.804;23.342;2023-08-08T09:56:03;71719.16;;;-148.52;45.78
3254;BME280;1639;42.804;23.342;2023-08-08T09:58:29;71704.69;;;-148.52;45.02
3254;BME280;1639;42.804;23.342;2023-08-08T10:00:55;71704.69;;;-148.52;44.93
3254;BME280;1639;42.804;23.342;2023-08-08T10:03:21;71686.06;;;-148.52;44.62
3254;BME280;1639;42.804;23.342;2023-08-08T10:05:47;71684.00;;;-148.52;45.25
3254;BME280;1639;42.804;23.342;2023-08-08T10:08:15;71679.88;;;-148.52;42.98
3254;BME280;1639;42.804;23.342;2023-08-08T10:10:42;71650.91;;;-148.52;45.05
3254;BME280;1639;42.804;23.342;2023-08-08T10:13:10;71628.19;;;-148.52;44.70
3254;BME280;1639;42.804;23.342;2023-08-08T10:15:39;71638.50;;;-148.52;42.71
3254;BME280;1639;42.804;23.342;2023-08-08T10:18:05;71661.25;;;-148.52;44.97
3254;BME280;1639;42.804;23.342;2023-08-08T10:20:32;71657.13;;;-148.52;43.25
3254;BME280;1639;42.804;23.342;2023-08-08T10:23:02;71698.47;;;-148.52;45.81
3254;BME280;1639;42.804;23.342;2023-08-08T10:25:29;71696.41;;;-148.52;43.97
3254;BME280;1639;42.804;23.342;2023-08-08T10:28:12;71698.47;;;-148.52;45.74
3254;BME280;1639;42.804;23.342;2023-08-08T10:33:15;71607.50;;;-148.52;44.65
3254;BME280;1639;42.804;23.342;2023-08-08T10:38:22;71725.34;;;-148.52;44.38
3254;BME280;1639;42.804;23.342;2023-08-08T10:40:47;71739.81;;;-148.52;44.55
3254;BME280;1639;42.804;23.342;2023-08-08T10:43:13;71686.06;;;-148.52;45.48
3254;BME280;1639;42.804;23.342;2023-08-08T10:45:41;71628.19;;;-148.52;45.06
3254;BME280;1639;42.804;23.342;2023-08-08T10:48:09;71599.22;;;-148.52;43.50
3254;BME280;1639;42.804;23.342;2023-08-08T10:50:39;71586.81;;;-148.52;43.19
3254;BME280;1639;42.804;23.342;2023-08-08T10:53:08;71572.34;;;-148.52;42.48
3254;BME280;1639;42.804;23.342;2023-08-08T10:55:37;71566.16;;;-148.52;43.04
3254;BME280;1639;42.804;23.342;2023-08-08T10:58:05;71599.22;;;-148.52;42.70
3254;BME280;1639;42.804;23.342;2023-08-08T11:00:35;71615.78;;;-148.52;42.57
3254;BME280;1639;42.804;23.342;2023-08-08T11:03:02;71657.13;;;-148.52;43.36
3254;BME280;1639;42.804;23.342;2023-08-08T11:05:35;71677.78;;;-148.52;43.78
3254;BME280;1639;42.804;23.342;2023-08-08T11:08:02;71644.72;;;-148.52;44.05
3254;BME280;1639;42.804;23.342;2023-08-08T11:10:28;71653.00;;;-148.52;42.77
3254;BME280;1639;42.804;23.342;2023-08-08T11:13:01;71657.13;;;-148.52;43.48
3254;BME280;1639;42.804;23.342;2023-08-08T11:15:28;71715.00;;;-148.52;43.25
3254;BME280;1639;42.804;23.342;2023-08-08T11:17:58;71690.19;;;-148.52;44.10
3254;BME280;1639;42.804;23.342;2023-08-08T11:20:24;71702.59;;;-148.52;44.74
3254;BME280;1639;42.804;23.342;2023-08-08T11:22:52;71727.41;;;-148.52;44.23
3254;BME280;1639;42.804;23.342;2023-08-08T11:25:17;71710.88;;;-148.52;44.84
3254;BME280;1639;42.804;23.342;2023-08-08T11:27:51;71690.19;;;-148.52;44.42
3254;BME280;1639;42.804;23.342;2023-08-08T11:30:17;71671.59;;;-148.52;44.14
3254;BME280;1639;42.804;23.342;2023-08-08T11:32:43;71644.72;;;-148.52;45.04
3254;BME280;1639;42.804;23.342;2023-08-08T11:35:09;71607.50;;;-148.52;42.67
3254;BME280;1639;42.804;23.342;2023-08-08T11:37:35;71595.09;;;-148.52;42.12
3254;BME280;1639;42.804;23.342;2023-08-08T11:40:01;71586.81;;;-148.52;43.77
3254;BME280;1639;42.804;23.342;2023-08-08T11:42:31;71603.38;;;-148.52;44.63
3254;BME280;1639;42.804;23.342;2023-08-08T11:44:57;71578.56;;;-148.52;43.06
3254;BME280;1639;42.804;23.342;2023-08-08T11:47:26;71541.34;;;-148.52;41.97
3254;BME280;1639;42.804;23.342;2023-08-08T11:49:53;71518.59;;;-148.52;42.40
3254;BME280;1639;42.804;23.342;2023-08-08T11:52:19;71495.84;;;-148.52;40.93
3254;BME280;1639;42.804;23.342;2023-08-08T11:54:51;71473.13;;;-148.52;40.08
3254;BME280;1639;42.804;23.342;2023-08-08T11:57:16;71475.19;;;-148.52;39.98
3254;BME280;1639;42.804;23.342;2023-08-08T11:59:41;71468.97;;;-148.52;40.90
3254;BME280;1639;42.804;23.342;2023-08-08T12:02:07;71452.44;;;-148.52;39.83
3254;BME280;1639;42.804;23.342;2023-08-08T12:04:32;71429.69;;;-148.52;39.59
3254;BME280;1639;42.804;23.342;2023-08-08T12:07:01;71425.56;;;-148.52;38.59
3254;BME280;1639;42.804;23.342;2023-08-08T12:09:34;71417.28;;;-148.52;38.61
3254;BME280;1639;42.804;23.342;2023-08-08T12:12:01;71425.56;;;-148.52;38.14
3254;BME280;1639;42.804;23.342;2023-08-08T12:14:26;71456.56;;;-148.52;41.38
3254;BME280;1639;42.804;23.342;2023-08-08T12:16:53;71425.56;;;-148.52;41.43
3254;BME280;1639;42.804;23.342;2023-08-08T12:19:23;71390.41;;;-148.52;41.09
3254;BME280;1639;42.804;23.342;2023-08-08T12:21:50;71415.22;;;-148.52;39.11
3254;BME280;1639;42.804;23.342;2023-08-08T12:24:17;71437.97;;;-148.52;40.13
3254;BME280;1639;42.804;23.342;2023-08-08T12:26:42;71421.44;;;-148.52;40.22
3254;BME280;1639;42.804;23.342;2023-08-08T12:29:08;71425.56;;;-148.52;39.02
3254;BME280;1639;42.804;23.342;2023-08-08T12:31:34;71456.56;;;-148.52;39.79
3254;BME280;1639;42.804;23.342;2023-08-08T12:34:00;71495.84;;;-148.52;40.01
3254;BME280;1639;42.804;23.342;2023-08-08T12:36:25;71535.13;;;-148.52;40.88
3254;BME280;1639;42.804;23.342;2023-08-08T12:38:51;71553.75;;;-148.52;41.22
3254;BME280;1639;42.804;23.342;2023-08-08T12:41:16;71522.72;;;-148.52;40.34
3254;BME280;1639;42.804;23.342;2023-08-08T12:43:42;71516.53;;;-148.52;41.78
3254;BME280;1639;42.804;23.342;2023-08-08T12:46:07;71516.53;;;-148.52;41.40
3254;BME280;1639;42.804;23.342;2023-08-08T12:48:32;71500.00;;;-148.52;39.75